Terminal Aerodrome Forecast
Issued by NWS Cleveland, OH

Home | Current Version | Previous Version | Graphics & Text | Print | Product List | Glossary On
Versions: 1 2 3 4 5 6 7 8 9 10 11 12 13 14 15 16 17 18 19 20 21
000
FTUS41 KCLE 241100 AAA
TAFMFD
TAF AMD
KMFD 241123Z 2411/2506 14010KT 4SM BR OVC006
      TEMPO 2412/2414 2SM BR OVC003
     FM241600 16015G25KT P6SM OVC012
     FM242200 18020G35KT 4SM -SHRA OVC012
     FM250000 24022G40KT P6SM OVC012=

USA.gov is the U.S. government's official web portal to all federal, state and local government web resources and services.